sensor_id;sensor_type;location;lat;lon;timestamp;P1;durP1;ratioP1;P2;durP2;ratioP2
2313;SDS011;42279;51.388;7.000;2022-10-04T00:01:23;8.43;;;4.70;;
2313;SDS011;42279;51.388;7.000;2022-10-04T00:03:51;5.87;;;5.27;;
2313;SDS011;42279;51.388;7.000;2022-10-04T00:06:19;6.60;;;5.60;;
2313;SDS011;42279;51.388;7.000;2022-10-04T00:13:48;4.70;;;4.30;;
2313;SDS011;42279;51.388;7.000;2022-10-04T00:16:36;10.60;;;5.07;;
2313;SDS011;42279;51.388;7.000;2022-10-04T00:19:20;5.07;;;4.63;;
2313;SDS011;42279;51.388;7.000;2022-10-04T00:24:37;5.23;;;4.97;;
2313;SDS011;42279;51.388;7.000;2022-10-04T00:27:26;6.57;;;6.07;;
2313;SDS011;42279;51.388;7.000;2022-10-04T00:40:29;6.43;;;5.47;;
2313;SDS011;42279;51.388;7.000;2022-10-04T00:43:03;9.67;;;5.57;;
2313;SDS011;42279;51.388;7.000;2022-10-04T00:45:35;6.23;;;5.60;;
2313;SDS011;42279;51.388;7.000;2022-10-04T00:50:34;6.10;;;5.60;;
2313;SDS011;42279;51.388;7.000;2022-10-04T00:53:01;6.50;;;5.40;;
2313;SDS011;42279;51.388;7.000;2022-10-04T00:55:33;6.20;;;5.70;;
2313;SDS011;42279;51.388;7.000;2022-10-04T00:58:01;5.87;;;5.37;;
2313;SDS011;42279;51.388;7.000;2022-10-04T01:00:29;6.13;;;5.73;;
2313;SDS011;42279;51.388;7.000;2022-10-04T01:03:13;5.90;;;5.17;;
2313;SDS011;42279;51.388;7.000;2022-10-04T01:05:43;6.37;;;5.97;;
2313;SDS011;42279;51.388;7.000;2022-10-04T01:10:51;7.50;;;6.77;;
2313;SDS011;42279;51.388;7.000;2022-10-04T01:13:21;6.20;;;5.80;;
2313;SDS011;42279;51.388;7.000;2022-10-04T01:15:55;7.27;;;6.47;;
2313;SDS011;42279;51.388;7.000;2022-10-04T01:20:56;5.63;;;5.03;;
2313;SDS011;42279;51.388;7.000;2022-10-04T01:25:57;5.73;;;5.37;;
2313;SDS011;42279;51.388;7.000;2022-10-04T01:28:24;6.40;;;5.80;;
2313;SDS011;42279;51.388;7.000;2022-10-04T01:30:50;9.07;;;6.23;;
2313;SDS011;42279;51.388;7.000;2022-10-04T01:33:17;6.13;;;5.63;;
2313;SDS011;42279;51.388;7.000;2022-10-04T01:35:43;6.03;;;5.63;;
2313;SDS011;42279;51.388;7.000;2022-10-04T01:38:09;6.30;;;5.70;;
2313;SDS011;42279;51.388;7.000;2022-10-04T01:40:38;6.13;;;5.63;;
2313;SDS011;42279;51.388;7.000;2022-10-04T01:43:08;6.27;;;5.77;;
2313;SDS011;42279;51.388;7.000;2022-10-04T01:45:37;6.67;;;6.20;;
2313;SDS011;42279;51.388;7.000;2022-10-04T01:48:07;6.37;;;5.70;;
2313;SDS011;42279;51.388;7.000;2022-10-04T01:50:37;6.97;;;6.27;;
2313;SDS011;42279;51.388;7.000;2022-10-04T01:53:19;6.57;;;6.10;;
2313;SDS011;42279;51.388;7.000;2022-10-04T01:55:49;6.20;;;5.80;;
2313;SDS011;42279;51.388;7.000;2022-10-04T01:58:26;5.93;;;5.47;;
2313;SDS011;42279;51.388;7.000;2022-10-04T02:00:58;6.43;;;6.03;;
2313;SDS011;42279;51.388;7.000;2022-10-04T02:03:28;19.33;;;6.53;;
2313;SDS011;42279;51.388;7.000;2022-10-04T02:05:56;6.87;;;6.50;;
2313;SDS011;42279;51.388;7.000;2022-10-04T02:08:28;6.83;;;6.23;;
2313;SDS011;42279;51.388;7.000;2022-10-04T02:10:55;6.30;;;5.70;;
2313;SDS011;42279;51.388;7.000;2022-10-04T02:13:22;6.27;;;5.93;;
2313;SDS011;42279;51.388;7.000;2022-10-04T02:15:53;7.17;;;6.77;;
2313;SDS011;42279;51.388;7.000;2022-10-04T02:18:20;6.90;;;6.50;;
2313;SDS011;42279;51.388;7.000;2022-10-04T02:20:47;7.80;;;6.60;;
2313;SDS011;42279;51.388;7.000;2022-10-04T02:23:15;7.40;;;6.87;;
2313;SDS011;42279;51.388;7.000;2022-10-04T02:25:42;6.87;;;6.43;;
2313;SDS011;42279;51.388;7.000;2022-10-04T02:28:09;7.27;;;6.60;;
2313;SDS011;42279;51.388;7.000;2022-10-04T02:30:35;6.60;;;6.10;;
2313;SDS011;42279;51.388;7.000;2022-10-04T02:33:02;6.33;;;5.50;;
2313;SDS011;42279;51.388;7.000;2022-10-04T02:35:29;10.20;;;7.40;;
2313;SDS011;42279;51.388;7.000;2022-10-04T02:38:13;7.10;;;5.90;;
2313;SDS011;42279;51.388;7.000;2022-10-04T02:40:55;5.97;;;5.60;;
2313;SDS011;42279;51.388;7.000;2022-10-04T02:43:32;12.83;;;7.07;;
2313;SDS011;42279;51.388;7.000;2022-10-04T02:46:04;6.67;;;6.10;;
2313;SDS011;42279;51.388;7.000;2022-10-04T02:51:04;6.23;;;5.80;;
2313;SDS011;42279;51.388;7.000;2022-10-04T02:55:57;13.60;;;7.20;;
2313;SDS011;42279;51.388;7.000;2022-10-04T02:58:24;6.00;;;5.70;;
2313;SDS011;42279;51.388;7.000;2022-10-04T03:00:51;7.90;;;6.20;;
2313;SDS011;42279;51.388;7.000;2022-10-04T03:05:52;8.13;;;5.87;;
2313;SDS011;42279;51.388;7.000;2022-10-04T03:08:18;6.53;;;6.10;;
2313;SDS011;42279;51.388;7.000;2022-10-04T03:10:44;5.90;;;5.47;;
2313;SDS011;42279;51.388;7.000;2022-10-04T03:13:11;6.50;;;6.00;;
2313;SDS011;42279;51.388;7.000;2022-10-04T03:15:38;6.87;;;6.27;;
2313;SDS011;42279;51.388;7.000;2022-10-04T03:18:04;7.03;;;6.40;;
2313;SDS011;42279;51.388;7.000;2022-10-04T03:20:32;6.73;;;6.10;;
2313;SDS011;42279;51.388;7.000;2022-10-04T03:23:00;6.50;;;5.90;;
2313;SDS011;42279;51.388;7.000;2022-10-04T03:25:27;7.00;;;6.37;;
2313;SDS011;42279;51.388;7.000;2022-10-04T03:27:55;13.83;;;6.60;;
2313;SDS011;42279;51.388;7.000;2022-10-04T03:30:24;8.60;;;6.23;;
2313;SDS011;42279;51.388;7.000;2022-10-04T03:32:50;7.13;;;5.63;;
2313;SDS011;42279;51.388;7.000;2022-10-04T03:35:24;8.07;;;6.60;;
2313;SDS011;42279;51.388;7.000;2022-10-04T03:37:52;6.67;;;6.17;;
2313;SDS011;42279;51.388;7.000;2022-10-04T03:40:20;6.70;;;5.97;;
2313;SDS011;42279;51.388;7.000;2022-10-04T03:42:51;7.90;;;5.50;;
2313;SDS011;42279;51.388;7.000;2022-10-04T03:45:17;7.40;;;6.90;;
2313;SDS011;42279;51.388;7.000;2022-10-04T03:47:45;6.77;;;6.20;;
2313;SDS011;42279;51.388;7.000;2022-10-04T03:52:38;7.20;;;6.80;;
2313;SDS011;42279;51.388;7.000;2022-10-04T03:55:08;6.93;;;6.10;;
2313;SDS011;42279;51.388;7.000;2022-10-04T03:57:35;6.77;;;6.27;;
2313;SDS011;42279;51.388;7.000;2022-10-04T04:00:03;9.47;;;7.10;;
2313;SDS011;42279;51.388;7.000;2022-10-04T04:05:22;7.10;;;6.50;;
2313;SDS011;42279;51.388;7.000;2022-10-04T04:08:04;8.67;;;8.00;;
2313;SDS011;42279;51.388;7.000;2022-10-04T04:10:33;7.20;;;6.70;;
2313;SDS011;42279;51.388;7.000;2022-10-04T04:13:00;11.60;;;7.63;;
2313;SDS011;42279;51.388;7.000;2022-10-04T04:15:27;10.47;;;8.07;;
2313;SDS011;42279;51.388;7.000;2022-10-04T04:17:54;8.40;;;7.60;;
2313;SDS011;42279;51.388;7.000;2022-10-04T04:20:24;8.33;;;7.63;;
2313;SDS011;42279;51.388;7.000;2022-10-04T04:25:27;9.50;;;8.70;;
2313;SDS011;42279;51.388;7.000;2022-10-04T04:27:59;9.83;;;8.57;;
2313;SDS011;42279;51.388;7.000;2022-10-04T04:30:26;9.00;;;8.20;;
2313;SDS011;42279;51.388;7.000;2022-10-04T04:32:53;12.73;;;8.57;;
2313;SDS011;42279;51.388;7.000;2022-10-04T04:35:28;9.37;;;8.50;;
2313;SDS011;42279;51.388;7.000;2022-10-04T04:38:28;9.50;;;8.40;;
2313;SDS011;42279;51.388;7.000;2022-10-04T04:40:47;10.13;;;9.03;;
2313;SDS011;42279;51.388;7.000;2022-10-04T04:43:17;10.80;;;7.90;;
2313;SDS011;42279;51.388;7.000;2022-10-04T04:45:44;9.37;;;8.67;;
2313;SDS011;42279;51.388;7.000;2022-10-04T04:48:13;10.60;;;9.20;;
2313;SDS011;42279;51.388;7.000;2022-10-04T04:50:40;33.20;;;26.47;;
2313;SDS011;42279;51.388;7.000;2022-10-04T04:55:33;32.90;;;27.43;;
2313;SDS011;42279;51.388;7.000;2022-10-04T04:58:00;13.47;;;12.13;;
2313;SDS011;42279;51.388;7.000;2022-10-04T05:00:30;10.63;;;9.67;;
2313;SDS011;42279;51.388;7.000;2022-10-04T05:02:58;12.07;;;9.20;;
2313;SDS011;42279;51.388;7.000;2022-10-04T05:05:31;10.53;;;9.50;;
2313;SDS011;42279;51.388;7.000;2022-10-04T05:08:11;9.57;;;8.87;;
2313;SDS011;42279;51.388;7.000;2022-10-04T05:10:39;9.93;;;8.93;;
2313;SDS011;42279;51.388;7.000;2022-10-04T05:13:07;10.83;;;9.93;;
2313;SDS011;42279;51.388;7.000;2022-10-04T05:15:34;14.53;;;10.80;;
2313;SDS011;42279;51.388;7.000;2022-10-04T05:18:01;10.87;;;9.53;;
2313;SDS011;42279;51.388;7.000;2022-10-04T05:20:28;12.17;;;10.97;;
2313;SDS011;42279;51.388;7.000;2022-10-04T05:22:55;12.47;;;10.60;;
2313;SDS011;42279;51.388;7.000;2022-10-04T05:25:25;13.73;;;10.83;;
2313;SDS011;42279;51.388;7.000;2022-10-04T05:27:52;14.20;;;10.37;;
2313;SDS011;42279;51.388;7.000;2022-10-04T05:31:06;12.43;;;10.10;;
2313;SDS011;42279;51.388;7.000;2022-10-04T05:33:06;10.20;;;9.40;;
2313;SDS011;42279;51.388;7.000;2022-10-04T05:38:21;11.33;;;9.70;;
2313;SDS011;42279;51.388;7.000;2022-10-04T05:46:12;20.60;;;10.90;;
2313;SDS011;42279;51.388;7.000;2022-10-04T05:48:38;10.27;;;8.93;;
2313;SDS011;42279;51.388;7.000;2022-10-04T05:51:16;14.07;;;10.93;;
2313;SDS011;42279;51.388;7.000;2022-10-04T05:53:43;16.83;;;10.40;;
2313;SDS011;42279;51.388;7.000;2022-10-04T06:17:29;9.17;;;8.10;;
2313;SDS011;42279;51.388;7.000;2022-10-04T06:22:28;9.10;;;8.20;;
2313;SDS011;42279;51.388;7.000;2022-10-04T06:24:56;8.90;;;8.07;;
2313;SDS011;42279;51.388;7.000;2022-10-04T06:27:33;9.77;;;8.83;;
2313;SDS011;42279;51.388;7.000;2022-10-04T06:30:05;14.60;;;10.50;;
2313;SDS011;42279;51.388;7.000;2022-10-04T06:32:45;9.20;;;8.30;;
2313;SDS011;42279;51.388;7.000;2022-10-04T06:45:56;8.80;;;8.20;;
2313;SDS011;42279;51.388;7.000;2022-10-04T06:53:31;8.10;;;7.43;;
2313;SDS011;42279;51.388;7.000;2022-10-04T07:01:38;9.50;;;7.53;;
2313;SDS011;42279;51.388;7.000;2022-10-04T07:06:46;7.10;;;6.20;;
2313;SDS011;42279;51.388;7.000;2022-10-04T07:09:15;8.90;;;6.80;;
2313;SDS011;42279;51.388;7.000;2022-10-04T07:11:46;13.53;;;6.13;;
2313;SDS011;42279;51.388;7.000;2022-10-04T07:14:15;5.93;;;5.40;;
2313;SDS011;42279;51.388;7.000;2022-10-04T07:17:02;7.67;;;5.60;;
2313;SDS011;42279;51.388;7.000;2022-10-04T07:19:32;5.83;;;5.27;;
2313;SDS011;42279;51.388;7.000;2022-10-04T07:24:48;6.90;;;5.37;;
2313;SDS011;42279;51.388;7.000;2022-10-04T07:27:29;6.57;;;5.97;;
2313;SDS011;42279;51.388;7.000;2022-10-04T07:29:57;5.13;;;4.93;;
2313;SDS011;42279;51.388;7.000;2022-10-04T07:32:27;5.83;;;5.30;;
2313;SDS011;42279;51.388;7.000;2022-10-04T07:35:00;7.77;;;5.40;;
2313;SDS011;42279;51.388;7.000;2022-10-04T07:37:27;6.00;;;5.27;;
2313;SDS011;42279;51.388;7.000;2022-10-04T07:39:59;5.03;;;4.60;;
2313;SDS011;42279;51.388;7.000;2022-10-04T07:42:36;5.43;;;4.70;;
2313;SDS011;42279;51.388;7.000;2022-10-04T07:47:35;5.33;;;5.07;;
2313;SDS011;42279;51.388;7.000;2022-10-04T07:50:13;5.80;;;5.13;;
2313;SDS011;42279;51.388;7.000;2022-10-04T07:58:43;5.20;;;4.80;;
2313;SDS011;42279;51.388;7.000;2022-10-04T08:03:47;5.73;;;4.90;;
2313;SDS011;42279;51.388;7.000;2022-10-04T08:16:48;4.70;;;4.40;;
2313;SDS011;42279;51.388;7.000;2022-10-04T08:24:51;4.53;;;4.33;;
2313;SDS011;42279;51.388;7.000;2022-10-04T08:30:01;5.07;;;4.57;;
2313;SDS011;42279;51.388;7.000;2022-10-04T08:35:03;4.77;;;4.47;;
2313;SDS011;42279;51.388;7.000;2022-10-04T08:55:49;3.83;;;3.77;;
2313;SDS011;42279;51.388;7.000;2022-10-04T09:13:41;4.03;;;3.73;;
2313;SDS011;42279;51.388;7.000;2022-10-04T09:16:17;5.43;;;4.40;;
2313;SDS011;42279;51.388;7.000;2022-10-04T09:26:23;4.20;;;3.80;;
2313;SDS011;42279;51.388;7.000;2022-10-04T09:34:05;4.03;;;3.83;;
2313;SDS011;42279;51.388;7.000;2022-10-04T09:39:25;4.27;;;3.80;;
2313;SDS011;42279;51.388;7.000;2022-10-04T09:44:51;5.13;;;4.57;;
2313;SDS011;42279;51.388;7.000;2022-10-04T09:58:12;3.80;;;3.30;;
2313;SDS011;42279;51.388;7.000;2022-10-04T10:00:42;3.53;;;3.33;;
2313;SDS011;42279;51.388;7.000;2022-10-04T10:10:53;4.00;;;3.70;;
2313;SDS011;42279;51.388;7.000;2022-10-04T10:13:52;3.40;;;3.30;;
2313;SDS011;42279;51.388;7.000;2022-10-04T10:55:34;3.47;;;3.37;;
2313;SDS011;42279;51.388;7.000;2022-10-04T10:58:11;5.03;;;4.60;;
2313;SDS011;42279;51.388;7.000;2022-10-04T11:03:43;4.80;;;4.50;;
2313;SDS011;42279;51.388;7.000;2022-10-04T11:09:08;4.23;;;4.00;;
2313;SDS011;42279;51.388;7.000;2022-10-04T11:11:42;3.90;;;3.80;;
2313;SDS011;42279;51.388;7.000;2022-10-04T11:19:53;3.80;;;3.50;;
2313;SDS011;42279;51.388;7.000;2022-10-04T11:30:15;4.07;;;3.77;;
2313;SDS011;42279;51.388;7.000;2022-10-04T11:35:32;4.10;;;3.90;;
2313;SDS011;42279;51.388;7.000;2022-10-04T11:48:01;4.50;;;3.20;;
2313;SDS011;42279;51.388;7.000;2022-10-04T11:50:36;7.30;;;3.00;;
2313;SDS011;42279;51.388;7.000;2022-10-04T11:58:47;3.80;;;3.70;;
2313;SDS011;42279;51.388;7.000;2022-10-04T12:01:26;6.60;;;3.77;;
2313;SDS011;42279;51.388;7.000;2022-10-04T12:06:46;2.70;;;2.60;;
2313;SDS011;42279;51.388;7.000;2022-10-04T12:09:25;3.57;;;3.37;;
2313;SDS011;42279;51.388;7.000;2022-10-04T12:30:51;2.70;;;2.60;;
2313;SDS011;42279;51.388;7.000;2022-10-04T12:33:25;2.70;;;2.60;;
2313;SDS011;42279;51.388;7.000;2022-10-04T12:35:59;3.70;;;3.60;;
2313;SDS011;42279;51.388;7.000;2022-10-04T12:54:02;3.23;;;2.93;;
2313;SDS011;42279;51.388;7.000;2022-10-04T13:02:10;3.33;;;3.13;;
2313;SDS011;42279;51.388;7.000;2022-10-04T13:04:48;2.83;;;2.73;;
2313;SDS011;42279;51.388;7.000;2022-10-04T13:17:51;2.63;;;2.53;;
2313;SDS011;42279;51.388;7.000;2022-10-04T13:31:00;3.37;;;3.27;;
2313;SDS011;42279;51.388;7.000;2022-10-04T13:36:42;7.90;;;3.30;;
2313;SDS011;42279;51.388;7.000;2022-10-04T13:41:46;3.67;;;3.33;;
2313;SDS011;42279;51.388;7.000;2022-10-04T13:44:23;3.90;;;3.60;;
2313;SDS011;42279;51.388;7.000;2022-10-04T14:06:24;3.00;;;2.90;;
2313;SDS011;42279;51.388;7.000;2022-10-04T14:29:05;4.50;;;4.30;;
2313;SDS011;42279;51.388;7.000;2022-10-04T14:34:19;4.03;;;3.73;;
2313;SDS011;42279;51.388;7.000;2022-10-04T14:42:17;3.90;;;3.70;;
2313;SDS011;42279;51.388;7.000;2022-10-04T14:47:26;3.30;;;3.30;;
2313;SDS011;42279;51.388;7.000;2022-10-04T14:50:06;4.13;;;3.93;;
2313;SDS011;42279;51.388;7.000;2022-10-04T15:00:20;4.40;;;4.17;;
2313;SDS011;42279;51.388;7.000;2022-10-04T15:08:11;3.67;;;3.53;;
2313;SDS011;42279;51.388;7.000;2022-10-04T15:10:50;4.17;;;3.87;;
2313;SDS011;42279;51.388;7.000;2022-10-04T15:13:19;4.00;;;3.90;;
2313;SDS011;42279;51.388;7.000;2022-10-04T15:20:56;4.03;;;3.80;;
2313;SDS011;42279;51.388;7.000;2022-10-04T15:23:36;4.77;;;4.57;;
2313;SDS011;42279;51.388;7.000;2022-10-04T15:34:00;4.13;;;3.83;;
2313;SDS011;42279;51.388;7.000;2022-10-04T15:36:36;5.17;;;4.77;;
2313;SDS011;42279;51.388;7.000;2022-10-04T15:39:20;4.93;;;4.60;;
2313;SDS011;42279;51.388;7.000;2022-10-04T15:41:53;5.17;;;4.97;;
2313;SDS011;42279;51.388;7.000;2022-10-04T15:47:14;6.27;;;4.80;;
2313;SDS011;42279;51.388;7.000;2022-10-04T15:55:09;5.40;;;5.00;;
2313;SDS011;42279;51.388;7.000;2022-10-04T16:00:12;5.00;;;4.60;;
2313;SDS011;42279;51.388;7.000;2022-10-04T16:02:48;4.77;;;4.40;;
2313;SDS011;42279;51.388;7.000;2022-10-04T16:13:30;6.80;;;5.70;;
2313;SDS011;42279;51.388;7.000;2022-10-04T16:23:40;9.90;;;7.30;;
2313;SDS011;42279;51.388;7.000;2022-10-04T16:44:57;6.63;;;5.60;;
2313;SDS011;42279;51.388;7.000;2022-10-04T16:53:18;6.43;;;5.90;;
2313;SDS011;42279;51.388;7.000;2022-10-04T16:55:51;7.10;;;6.20;;
2313;SDS011;42279;51.388;7.000;2022-10-04T17:03:40;7.87;;;6.33;;
2313;SDS011;42279;51.388;7.000;2022-10-04T17:06:14;6.40;;;5.80;;
2313;SDS011;42279;51.388;7.000;2022-10-04T17:11:25;7.23;;;6.50;;
2313;SDS011;42279;51.388;7.000;2022-10-04T17:13:53;7.47;;;6.60;;
2313;SDS011;42279;51.388;7.000;2022-10-04T17:16:46;8.13;;;7.33;;
2313;SDS011;42279;51.388;7.000;2022-10-04T17:19:31;8.60;;;7.80;;
2313;SDS011;42279;51.388;7.000;2022-10-04T17:22:14;7.00;;;6.50;;
2313;SDS011;42279;51.388;7.000;2022-10-04T17:24:55;6.13;;;5.63;;
2313;SDS011;42279;51.388;7.000;2022-10-04T17:27:25;6.47;;;5.83;;
2313;SDS011;42279;51.388;7.000;2022-10-04T17:33:06;14.07;;;7.27;;
2313;SDS011;42279;51.388;7.000;2022-10-04T17:38:27;9.30;;;5.80;;
2313;SDS011;42279;51.388;7.000;2022-10-04T17:41:00;6.67;;;6.03;;
2313;SDS011;42279;51.388;7.000;2022-10-04T17:44:11;6.23;;;5.63;;
2313;SDS011;42279;51.388;7.000;2022-10-04T17:46:30;6.80;;;5.97;;
2313;SDS011;42279;51.388;7.000;2022-10-04T17:49:03;7.90;;;7.17;;
2313;SDS011;42279;51.388;7.000;2022-10-04T17:51:54;9.70;;;7.70;;
2313;SDS011;42279;51.388;7.000;2022-10-04T17:54:44;9.20;;;8.33;;
2313;SDS011;42279;51.388;7.000;2022-10-04T17:57:36;8.03;;;7.23;;
2313;SDS011;42279;51.388;7.000;2022-10-04T18:02:43;7.80;;;6.90;;
2313;SDS011;42279;51.388;7.000;2022-10-04T18:05:24;8.67;;;7.10;;
2313;SDS011;42279;51.388;7.000;2022-10-04T18:10:31;9.27;;;7.20;;
2313;SDS011;42279;51.388;7.000;2022-10-04T18:15:38;7.00;;;6.37;;
2313;SDS011;42279;51.388;7.000;2022-10-04T18:23:39;8.63;;;7.93;;
2313;SDS011;42279;51.388;7.000;2022-10-04T18:26:16;9.80;;;7.13;;
2313;SDS011;42279;51.388;7.000;2022-10-04T18:28:43;7.43;;;6.73;;
2313;SDS011;42279;51.388;7.000;2022-10-04T18:31:17;7.23;;;6.63;;
2313;SDS011;42279;51.388;7.000;2022-10-04T18:33:45;7.53;;;6.77;;
2313;SDS011;42279;51.388;7.000;2022-10-04T18:36:20;7.63;;;7.10;;
2313;SDS011;42279;51.388;7.000;2022-10-04T18:41:36;7.80;;;7.00;;
2313;SDS011;42279;51.388;7.000;2022-10-04T18:44:17;6.97;;;6.47;;
2313;SDS011;42279;51.388;7.000;2022-10-04T18:46:45;8.83;;;7.63;;
2313;SDS011;42279;51.388;7.000;2022-10-04T18:49:18;9.73;;;8.10;;
2313;SDS011;42279;51.388;7.000;2022-10-04T18:57:15;7.20;;;6.60;;
2313;SDS011;42279;51.388;7.000;2022-10-04T18:59:45;7.67;;;6.97;;
2313;SDS011;42279;51.388;7.000;2022-10-04T19:05:06;11.97;;;7.97;;
2313;SDS011;42279;51.388;7.000;2022-10-04T19:07:48;7.07;;;6.63;;
2313;SDS011;42279;51.388;7.000;2022-10-04T19:13:08;7.70;;;6.97;;
2313;SDS011;42279;51.388;7.000;2022-10-04T19:18:17;8.03;;;7.13;;
2313;SDS011;42279;51.388;7.000;2022-10-04T19:23:49;13.70;;;10.10;;
2313;SDS011;42279;51.388;7.000;2022-10-04T19:26:28;13.97;;;8.63;;
2313;SDS011;42279;51.388;7.000;2022-10-04T19:28:59;12.73;;;11.53;;
2313;SDS011;42279;51.388;7.000;2022-10-04T19:34:06;9.13;;;8.33;;
2313;SDS011;42279;51.388;7.000;2022-10-04T19:36:46;15.27;;;13.70;;
2313;SDS011;42279;51.388;7.000;2022-10-04T19:41:46;12.40;;;9.40;;
2313;SDS011;42279;51.388;7.000;2022-10-04T19:44:27;10.47;;;9.57;;
2313;SDS011;42279;51.388;7.000;2022-10-04T19:54:37;13.23;;;11.17;;
2313;SDS011;42279;51.388;7.000;2022-10-04T19:57:04;11.33;;;9.00;;
2313;SDS011;42279;51.388;7.000;2022-10-04T19:59:40;9.90;;;9.00;;
2313;SDS011;42279;51.388;7.000;2022-10-04T20:02:10;9.07;;;8.10;;
2313;SDS011;42279;51.388;7.000;2022-10-04T20:04:36;11.60;;;10.60;;
2313;SDS011;42279;51.388;7.000;2022-10-04T20:07:06;9.30;;;8.60;;
2313;SDS011;42279;51.388;7.000;2022-10-04T20:17:39;10.10;;;9.20;;
2313;SDS011;42279;51.388;7.000;2022-10-04T20:20:06;10.43;;;9.40;;
2313;SDS011;42279;51.388;7.000;2022-10-04T20:22:51;8.73;;;8.00;;
2313;SDS011;42279;51.388;7.000;2022-10-04T20:28:02;9.43;;;8.57;;
2313;SDS011;42279;51.388;7.000;2022-10-04T20:30:46;9.70;;;7.73;;
2313;SDS011;42279;51.388;7.000;2022-10-04T20:33:36;9.13;;;8.43;;
2313;SDS011;42279;51.388;7.000;2022-10-04T20:36:01;9.37;;;8.57;;
2313;SDS011;42279;51.388;7.000;2022-10-04T20:43:52;9.63;;;8.27;;
2313;SDS011;42279;51.388;7.000;2022-10-04T20:46:22;10.63;;;8.47;;
2313;SDS011;42279;51.388;7.000;2022-10-04T20:48:48;8.00;;;7.33;;
2313;SDS011;42279;51.388;7.000;2022-10-04T20:51:16;9.00;;;8.20;;
2313;SDS011;42279;51.388;7.000;2022-10-04T20:53:42;8.67;;;8.00;;
2313;SDS011;42279;51.388;7.000;2022-10-04T20:58:48;9.00;;;8.40;;
2313;SDS011;42279;51.388;7.000;2022-10-04T21:06:51;9.27;;;8.43;;
2313;SDS011;42279;51.388;7.000;2022-10-04T21:09:17;12.63;;;8.20;;
2313;SDS011;42279;51.388;7.000;2022-10-04T21:11:43;10.37;;;9.10;;
2313;SDS011;42279;51.388;7.000;2022-10-04T21:14:22;8.73;;;8.00;;
2313;SDS011;42279;51.388;7.000;2022-10-04T21:16:49;8.37;;;7.83;;
2313;SDS011;42279;51.388;7.000;2022-10-04T21:26:55;9.10;;;7.80;;
2313;SDS011;42279;51.388;7.000;2022-10-04T21:29:22;8.90;;;8.13;;
2313;SDS011;42279;51.388;7.000;2022-10-04T21:31:48;8.70;;;8.00;;
2313;SDS011;42279;51.388;7.000;2022-10-04T21:34:14;11.80;;;9.80;;
2313;SDS011;42279;51.388;7.000;2022-10-04T21:36:40;8.00;;;7.20;;
2313;SDS011;42279;51.388;7.000;2022-10-04T21:39:06;8.30;;;7.60;;
2313;SDS011;42279;51.388;7.000;2022-10-04T21:41:31;9.57;;;8.57;;
2313;SDS011;42279;51.388;7.000;2022-10-04T21:43:57;9.60;;;8.60;;
2313;SDS011;42279;51.388;7.000;2022-10-04T21:46:23;8.33;;;7.27;;
2313;SDS011;42279;51.388;7.000;2022-10-04T21:48:49;8.47;;;7.70;;
2313;SDS011;42279;51.388;7.000;2022-10-04T21:51:15;8.53;;;7.73;;
2313;SDS011;42279;51.388;7.000;2022-10-04T21:53:41;9.53;;;8.47;;
2313;SDS011;42279;51.388;7.000;2022-10-04T21:56:07;7.23;;;6.70;;
2313;SDS011;42279;51.388;7.000;2022-10-04T21:58:33;8.40;;;7.70;;
2313;SDS011;42279;51.388;7.000;2022-10-04T22:00:59;9.07;;;8.30;;
2313;SDS011;42279;51.388;7.000;2022-10-04T22:03:25;9.33;;;8.53;;
2313;SDS011;42279;51.388;7.000;2022-10-04T22:05:51;8.73;;;7.93;;
2313;SDS011;42279;51.388;7.000;2022-10-04T22:08:17;8.23;;;7.50;;
2313;SDS011;42279;51.388;7.000;2022-10-04T22:10:43;9.33;;;8.70;;
2313;SDS011;42279;51.388;7.000;2022-10-04T22:13:10;10.10;;;9.10;;
2313;SDS011;42279;51.388;7.000;2022-10-04T22:15:36;11.30;;;10.30;;
2313;SDS011;42279;51.388;7.000;2022-10-04T22:18:02;10.63;;;9.50;;
2313;SDS011;42279;51.388;7.000;2022-10-04T22:20:28;10.70;;;9.70;;
2313;SDS011;42279;51.388;7.000;2022-10-04T22:22:54;9.73;;;8.80;;
2313;SDS011;42279;51.388;7.000;2022-10-04T22:25:22;12.57;;;11.10;;
2313;SDS011;42279;51.388;7.000;2022-10-04T22:27:48;11.03;;;10.00;;
2313;SDS011;42279;51.388;7.000;2022-10-04T22:30:23;10.13;;;8.40;;
2313;SDS011;42279;51.388;7.000;2022-10-04T22:32:49;9.80;;;8.93;;
2313;SDS011;42279;51.388;7.000;2022-10-04T22:35:16;8.77;;;8.07;;
2313;SDS011;42279;51.388;7.000;2022-10-04T22:37:43;9.27;;;8.23;;
2313;SDS011;42279;51.388;7.000;2022-10-04T22:40:28;10.03;;;9.13;;
2313;SDS011;42279;51.388;7.000;2022-10-04T22:42:54;9.83;;;8.23;;
2313;SDS011;42279;51.388;7.000;2022-10-04T22:45:25;8.97;;;8.03;;
2313;SDS011;42279;51.388;7.000;2022-10-04T22:47:51;11.03;;;8.23;;
2313;SDS011;42279;51.388;7.000;2022-10-04T22:50:37;7.63;;;7.13;;
2313;SDS011;42279;51.388;7.000;2022-10-04T22:53:08;9.20;;;8.17;;
2313;SDS011;42279;51.388;7.000;2022-10-04T22:55:36;11.60;;;7.53;;
2313;SDS011;42279;51.388;7.000;2022-10-04T22:58:02;8.20;;;7.40;;
2313;SDS011;42279;51.388;7.000;2022-10-04T23:00:28;8.10;;;7.30;;
2313;SDS011;42279;51.388;7.000;2022-10-04T23:02:54;8.53;;;7.90;;
2313;SDS011;42279;51.388;7.000;2022-10-04T23:05:20;7.60;;;7.07;;
2313;SDS011;42279;51.388;7.000;2022-10-04T23:07:46;7.70;;;7.10;;
2313;SDS011;42279;51.388;7.000;2022-10-04T23:10:14;7.50;;;7.00;;
2313;SDS011;42279;51.388;7.000;2022-10-04T23:12:42;8.43;;;7.63;;
2313;SDS011;42279;51.388;7.000;2022-10-04T23:15:09;6.43;;;6.03;;
2313;SDS011;42279;51.388;7.000;2022-10-04T23:17:37;8.07;;;7.47;;
2313;SDS011;42279;51.388;7.000;2022-10-04T23:20:11;7.60;;;7.00;;
2313;SDS011;42279;51.388;7.000;2022-10-04T23:22:38;6.70;;;6.30;;
2313;SDS011;42279;51.388;7.000;2022-10-04T23:25:10;7.20;;;6.70;;
2313;SDS011;42279;51.388;7.000;2022-10-04T23:27:37;7.60;;;6.80;;
2313;SDS011;42279;51.388;7.000;2022-10-04T23:30:03;7.43;;;6.83;;
2313;SDS011;42279;51.388;7.000;2022-10-04T23:32:30;7.47;;;6.93;;
2313;SDS011;42279;51.388;7.000;2022-10-04T23:34:56;7.73;;;7.10;;
2313;SDS011;42279;51.388;7.000;2022-10-04T23:37:26;7.47;;;6.80;;
2313;SDS011;42279;51.388;7.000;2022-10-04T23:39:54;6.73;;;6.13;;
2313;SDS011;42279;51.388;7.000;2022-10-04T23:42:21;7.90;;;7.40;;
2313;SDS011;42279;51.388;7.000;2022-10-04T23:44:54;6.80;;;6.30;;
2313;SDS011;42279;51.388;7.000;2022-10-04T23:47:20;8.20;;;7.37;;
2313;SDS011;42279;51.388;7.000;2022-10-04T23:49:47;7.67;;;7.00;;
2313;SDS011;42279;51.388;7.000;2022-10-04T23:52:16;8.83;;;7.70;;
2313;SDS011;42279;51.388;7.000;2022-10-04T23:54:43;8.50;;;7.80;;
2313;SDS011;42279;51.388;7.000;2022-10-04T23:57:09;8.20;;;7.60;;
2313;SDS011;42279;51.388;7.000;2022-10-04T23:59:40;7.67;;;6.93;;
